Share

Keyes, OK (73947)

3:35 PM CDT on April 23, 2014 (GMT -0500)
Fort Wiegers (KKSELKHA2) Elev 3554 ft | 37.04 °N, 101.97 °W | Change Station
Active Advisory: Fire Weather Warning

Current weather conditions updated 1 second ago

Clear
Clear
83.6 °F
Feels Like 81 °F
N
26.0
Wind Variable Wind from North
Gusts 32.0 mph
Sunrise 7:04 AM
Sunset 8:30 PM
Moon Waning Crescent

Today is forecast to be nearly the same temperature as yesterday.

Pressure 29.44 in
Visibility 10.0 miles
Clouds Clear
Heat Index 81 °F
Dew Point 41 °F
Humidity 22%
Rainfall 0.00 in
Snow Depth Not available.
UV 10 out of 16
Pollen 9.30 out of 12
Air Quality Not available.
Flu Activity Regional
METAR KGUY 231953Z AUTO 20022G32KT 10SM CLR 30/06 A2959 RMK AO2 PK WND 18035/1909 SLP970 T03000061

More Conditions Fewer Conditions

Pressure 29.44 in
Visibility 10.0 miles
Clouds Clear
Heat Index 81 °F
Dew Point 41 °F
Humidity 22%
Rainfall 0.00 in
Snow Depth Not available.
UV 10 out of 16
Pollen 9.30 out of 12
Air Quality Not available.
Flu Activity Regional
METAR KGUY 231953Z AUTO 20022G32KT 10SM CLR 30/06 A2959 RMK AO2 PK WND 18035/1909 SLP970 T03000061

More Conditions Fewer Conditions

10-Day Weather Forecast

Almanac

Astronomy

Apr. 23, 2014 Rise Set
Actual Time 7:04 AM CDT 8:30 PM CDT
Civil Twilight 6:37 AM CDT 8:57 PM CDT
Nautical Twilight 6:04 AM CDT 9:30 PM CDT
Astronomical Twilight 5:30 AM CDT 10:05 PM CDT
Moon 3:28 AM CDT 2:50 PM CDT
Length of Visible Light 14h 20m
Length of Day
13h 26m
Tomorrow will be 2m 8s longer.
Waning Crescent, 33% of the Moon is Illuminated
Today
Waning Crescent
Apr 29
New
May 6
First Quarter
May 14
Full
May 21
Last Quarter

Today's Extremes

State Highs State Lows

Community

  • Stunning Sunrise
    Stunning Sunrise
  • spring flowers
    spring flowers
  • Earth Day Spectrum Ove' Blue
    Earth Day Spectrum Ove' Blue
  • BARN B&W
    BARN B&W
  • April Sunset
    April Sunset

WunderPhotos

Upload Photos

1,704,403 photos uploaded!

WunderBlogs® & News

Nearby

Snow Depth

Station Depth Elevation
No new snow has been reported.

Coastal Water Temperatures

Place Temperature
No Stations Reporting

Earthquake Activity

City Distance Mag. Time & Date
No recent earthquake activity has been reported nearby.
Minimum magnitude displayed is 2.5.

Nearby Weather Stations

Station Location Temp. Heat Index Dew Point Humidity Wind Precip. Elev Updated Type
Fort Wiegers, Elkhart, KS 83.6 °F 81 °F 41 °F 22% North  at  26.0 mph 0.00 in / hr 3554 ft 3:35 PM CDT Rapid Fire

Show More Stations Show Fewer Stations

What do you think?

We're not finished. Please let us know what you like, what you don't like, and what you are still missing.